Kezdőlap
METAR-TAF:

METAR-TAF

Repülőterek :

Bamako-Sénoui nemzetközi repülőtér

Bamako, Mali

földrajzi szélesség: 12-32N, földrajzi hosszúság: 007-57W, magasság: 380 m

Jelenlegi meteorológiai megfigyelések

A jelentés 37 perccel ezelõtt készült, 08:00 UTC
Északkeleti szél 9 kt, északi és kelet-északkeleti között változik
Hőmérséklet 24°C
Páratartalom 25%
Légköri nyomás 1015 hPa
Látótávolság: 8000 m

METAR: GABS 190800Z 04009KT 010V070 8000 NSC 24/03 Q1015 NOSIG

Idő: 08:37 (08:37 UTC)

Előrejelzés

A jelentés 3 órával és 17 perccel ezelõtt készült, 05:20 UTC
Az előrejelzés 19-én 06 óra UTC és 20-én 12 óra UTC között érvényes
Északkeleti szél 10 kt
Látótávolság 10 km, vagy több
felhőtlen 1500 m magasságban, és nincs gomolyfelhõ

TAF: GABS 190520Z 1906/2012 04010KT CAVOK

Meteorológiai megfigyelések és előrejelzések több, mint 4000 repülőtéren (METAR és TAF jelentéseket).

A térképen piros és sárga pontok jelzik az elérhető meteorológiai állomásokat.

Mozgassa az egeret a pont fölött, hogy megjelenjen az állomás neve.

Azután kattintson az időjárási megfigyelések és előrejelzések megtekintéséhez.

A térkép megváltoztatása: kattintson a fekete keresztel jelölt zöld gombra ráközelítéshez, a vonallal jelölt zöld gombra távolításhoz, vagy a zöld nyilakra a szomszédos térképek eléréséhez.


METAR-TAF: